sensor_id;sensor_type;location;lat;lon;timestamp;P1;durP1;ratioP1;P2;durP2;ratioP2
22634;SDS011;11484;50.858;4.384;2022-10-17T00:01:33;6.47;;;5.82;;
22634;SDS011;11484;50.858;4.384;2022-10-17T00:03:59;8.38;;;6.13;;
22634;SDS011;11484;50.858;4.384;2022-10-17T00:06:25;10.02;;;5.60;;
22634;SDS011;11484;50.858;4.384;2022-10-17T00:08:51;10.85;;;6.50;;
22634;SDS011;11484;50.858;4.384;2022-10-17T00:11:21;8.48;;;5.63;;
22634;SDS011;11484;50.858;4.384;2022-10-17T00:13:48;8.98;;;6.40;;
22634;SDS011;11484;50.858;4.384;2022-10-17T00:16:23;7.35;;;5.60;;
22634;SDS011;11484;50.858;4.384;2022-10-17T00:18:58;8.95;;;6.13;;
22634;SDS011;11484;50.858;4.384;2022-10-17T00:21:25;7.97;;;6.07;;
22634;SDS011;11484;50.858;4.384;2022-10-17T00:23:51;7.75;;;6.50;;
22634;SDS011;11484;50.858;4.384;2022-10-17T00:26:18;9.02;;;6.28;;
22634;SDS011;11484;50.858;4.384;2022-10-17T00:28:45;9.10;;;6.20;;
22634;SDS011;11484;50.858;4.384;2022-10-17T00:31:11;9.18;;;6.32;;
22634;SDS011;11484;50.858;4.384;2022-10-17T00:33:38;8.57;;;5.75;;
22634;SDS011;11484;50.858;4.384;2022-10-17T00:36:08;6.38;;;5.68;;
22634;SDS011;11484;50.858;4.384;2022-10-17T00:38:39;7.95;;;5.97;;
22634;SDS011;11484;50.858;4.384;2022-10-17T00:41:08;9.02;;;6.10;;
22634;SDS011;11484;50.858;4.384;2022-10-17T00:43:48;9.38;;;6.43;;
22634;SDS011;11484;50.858;4.384;2022-10-17T00:46:17;8.90;;;6.60;;
22634;SDS011;11484;50.858;4.384;2022-10-17T00:48:47;9.88;;;6.07;;
22634;SDS011;11484;50.858;4.384;2022-10-17T00:51:16;13.70;;;6.60;;
22634;SDS011;11484;50.858;4.384;2022-10-17T00:53:44;12.25;;;6.28;;
22634;SDS011;11484;50.858;4.384;2022-10-17T00:56:10;10.95;;;6.20;;
22634;SDS011;11484;50.858;4.384;2022-10-17T00:58:37;12.15;;;6.32;;
22634;SDS011;11484;50.858;4.384;2022-10-17T01:01:03;8.20;;;5.70;;
22634;SDS011;11484;50.858;4.384;2022-10-17T01:03:29;11.02;;;6.40;;
22634;SDS011;11484;50.858;4.384;2022-10-17T01:05:54;10.43;;;6.05;;
22634;SDS011;11484;50.858;4.384;2022-10-17T01:08:21;10.35;;;6.40;;
22634;SDS011;11484;50.858;4.384;2022-10-17T01:13:27;9.55;;;5.97;;
22634;SDS011;11484;50.858;4.384;2022-10-17T01:18:59;8.98;;;5.40;;
22634;SDS011;11484;50.858;4.384;2022-10-17T01:21:49;13.45;;;5.85;;
22634;SDS011;11484;50.858;4.384;2022-10-17T01:24:40;9.57;;;5.68;;
22634;SDS011;11484;50.858;4.384;2022-10-17T01:36:47;10.32;;;6.00;;
22634;SDS011;11484;50.858;4.384;2022-10-17T01:38:59;7.88;;;5.85;;
22634;SDS011;11484;50.858;4.384;2022-10-17T01:41:39;8.63;;;6.50;;
22634;SDS011;11484;50.858;4.384;2022-10-17T01:44:22;8.88;;;5.80;;
22634;SDS011;11484;50.858;4.384;2022-10-17T01:47:00;6.88;;;5.55;;
22634;SDS011;11484;50.858;4.384;2022-10-17T01:49:30;6.45;;;5.40;;
22634;SDS011;11484;50.858;4.384;2022-10-17T01:52:05;11.73;;;6.38;;
22634;SDS011;11484;50.858;4.384;2022-10-17T01:54:39;8.43;;;5.40;;
22634;SDS011;11484;50.858;4.384;2022-10-17T01:57:15;7.85;;;5.65;;
22634;SDS011;11484;50.858;4.384;2022-10-17T01:59:57;8.18;;;5.72;;
22634;SDS011;11484;50.858;4.384;2022-10-17T02:02:24;8.73;;;5.28;;
22634;SDS011;11484;50.858;4.384;2022-10-17T02:04:51;8.88;;;5.25;;
22634;SDS011;11484;50.858;4.384;2022-10-17T02:07:19;8.02;;;5.35;;
22634;SDS011;11484;50.858;4.384;2022-10-17T02:09:45;7.97;;;5.45;;
22634;SDS011;11484;50.858;4.384;2022-10-17T02:12:16;8.43;;;4.95;;
22634;SDS011;11484;50.858;4.384;2022-10-17T02:28:42;8.55;;;6.00;;
22634;SDS011;11484;50.858;4.384;2022-10-17T02:31:28;7.28;;;5.10;;
22634;SDS011;11484;50.858;4.384;2022-10-17T02:34:03;8.13;;;5.13;;
22634;SDS011;11484;50.858;4.384;2022-10-17T02:36:34;10.63;;;5.28;;
22634;SDS011;11484;50.858;4.384;2022-10-17T02:39:03;9.57;;;4.90;;
22634;SDS011;11484;50.858;4.384;2022-10-17T02:41:31;9.05;;;4.78;;
22634;SDS011;11484;50.858;4.384;2022-10-17T02:43:58;8.20;;;4.95;;
22634;SDS011;11484;50.858;4.384;2022-10-17T02:46:23;9.60;;;5.13;;
22634;SDS011;11484;50.858;4.384;2022-10-17T02:48:57;10.50;;;5.13;;
22634;SDS011;11484;50.858;4.384;2022-10-17T02:54:38;7.38;;;5.22;;
22634;SDS011;11484;50.858;4.384;2022-10-17T02:56:53;10.13;;;5.55;;
22634;SDS011;11484;50.858;4.384;2022-10-17T02:59:23;8.27;;;5.10;;
22634;SDS011;11484;50.858;4.384;2022-10-17T03:01:51;7.00;;;5.15;;
22634;SDS011;11484;50.858;4.384;2022-10-17T03:04:18;7.18;;;5.00;;
22634;SDS011;11484;50.858;4.384;2022-10-17T03:06:44;8.45;;;5.13;;
22634;SDS011;11484;50.858;4.384;2022-10-17T03:09:11;11.98;;;5.43;;
22634;SDS011;11484;50.858;4.384;2022-10-17T03:11:37;10.20;;;5.40;;
22634;SDS011;11484;50.858;4.384;2022-10-17T03:14:03;9.60;;;5.40;;
22634;SDS011;11484;50.858;4.384;2022-10-17T03:16:29;10.95;;;5.97;;
22634;SDS011;11484;50.858;4.384;2022-10-17T03:18:54;6.45;;;5.18;;
22634;SDS011;11484;50.858;4.384;2022-10-17T03:21:20;9.07;;;5.78;;
22634;SDS011;11484;50.858;4.384;2022-10-17T03:23:46;8.48;;;5.60;;
22634;SDS011;11484;50.858;4.384;2022-10-17T03:26:11;7.20;;;5.53;;
22634;SDS011;11484;50.858;4.384;2022-10-17T03:28:37;9.75;;;5.18;;
22634;SDS011;11484;50.858;4.384;2022-10-17T03:31:08;10.27;;;5.50;;
22634;SDS011;11484;50.858;4.384;2022-10-17T03:33:35;10.95;;;6.10;;
22634;SDS011;11484;50.858;4.384;2022-10-17T03:36:09;9.68;;;5.28;;
22634;SDS011;11484;50.858;4.384;2022-10-17T03:38:36;8.52;;;5.95;;
22634;SDS011;11484;50.858;4.384;2022-10-17T03:41:02;6.93;;;5.68;;
22634;SDS011;11484;50.858;4.384;2022-10-17T03:43:28;8.68;;;5.88;;
22634;SDS011;11484;50.858;4.384;2022-10-17T03:45:55;11.00;;;6.32;;
22634;SDS011;11484;50.858;4.384;2022-10-17T03:48:22;9.57;;;6.25;;
22634;SDS011;11484;50.858;4.384;2022-10-17T03:50:48;10.73;;;6.30;;
22634;SDS011;11484;50.858;4.384;2022-10-17T03:53:14;8.00;;;5.82;;
22634;SDS011;11484;50.858;4.384;2022-10-17T03:55:40;10.85;;;6.05;;
22634;SDS011;11484;50.858;4.384;2022-10-17T03:58:06;11.60;;;5.93;;
22634;SDS011;11484;50.858;4.384;2022-10-17T04:00:32;10.88;;;6.03;;
22634;SDS011;11484;50.858;4.384;2022-10-17T04:03:00;8.70;;;5.30;;
22634;SDS011;11484;50.858;4.384;2022-10-17T04:05:25;7.78;;;5.57;;
22634;SDS011;11484;50.858;4.384;2022-10-17T04:07:51;8.48;;;5.57;;
22634;SDS011;11484;50.858;4.384;2022-10-17T04:10:16;8.18;;;5.50;;
22634;SDS011;11484;50.858;4.384;2022-10-17T04:12:42;9.65;;;5.82;;
22634;SDS011;11484;50.858;4.384;2022-10-17T04:15:08;8.90;;;6.15;;
22634;SDS011;11484;50.858;4.384;2022-10-17T04:17:34;7.43;;;5.20;;
22634;SDS011;11484;50.858;4.384;2022-10-17T04:20:00;8.90;;;5.05;;
22634;SDS011;11484;50.858;4.384;2022-10-17T04:22:26;8.88;;;5.28;;
22634;SDS011;11484;50.858;4.384;2022-10-17T04:24:52;8.07;;;5.63;;
22634;SDS011;11484;50.858;4.384;2022-10-17T04:27:17;8.57;;;5.22;;
22634;SDS011;11484;50.858;4.384;2022-10-17T04:29:43;7.97;;;5.47;;
22634;SDS011;11484;50.858;4.384;2022-10-17T04:32:09;7.75;;;5.15;;
22634;SDS011;11484;50.858;4.384;2022-10-17T04:34:34;9.40;;;5.45;;
22634;SDS011;11484;50.858;4.384;2022-10-17T04:37:00;8.73;;;5.40;;
22634;SDS011;11484;50.858;4.384;2022-10-17T04:39:26;9.13;;;5.20;;
22634;SDS011;11484;50.858;4.384;2022-10-17T04:41:52;8.95;;;5.10;;
22634;SDS011;11484;50.858;4.384;2022-10-17T04:44:18;8.65;;;5.10;;
22634;SDS011;11484;50.858;4.384;2022-10-17T04:46:44;8.48;;;5.18;;
22634;SDS011;11484;50.858;4.384;2022-10-17T04:49:10;7.45;;;5.13;;
22634;SDS011;11484;50.858;4.384;2022-10-17T04:51:36;7.53;;;5.30;;
22634;SDS011;11484;50.858;4.384;2022-10-17T04:54:02;9.10;;;4.90;;
22634;SDS011;11484;50.858;4.384;2022-10-17T04:56:28;8.07;;;4.80;;
22634;SDS011;11484;50.858;4.384;2022-10-17T04:58:53;7.03;;;4.80;;
22634;SDS011;11484;50.858;4.384;2022-10-17T05:01:20;8.60;;;5.07;;
22634;SDS011;11484;50.858;4.384;2022-10-17T05:03:46;8.25;;;5.30;;
22634;SDS011;11484;50.858;4.384;2022-10-17T05:06:13;6.95;;;5.20;;
22634;SDS011;11484;50.858;4.384;2022-10-17T05:08:41;7.45;;;5.20;;
22634;SDS011;11484;50.858;4.384;2022-10-17T05:11:21;6.30;;;4.63;;
22634;SDS011;11484;50.858;4.384;2022-10-17T05:13:53;6.38;;;4.95;;
22634;SDS011;11484;50.858;4.384;2022-10-17T05:16:20;10.60;;;5.82;;
22634;SDS011;11484;50.858;4.384;2022-10-17T05:18:50;7.35;;;5.22;;
22634;SDS011;11484;50.858;4.384;2022-10-17T05:21:17;8.05;;;4.90;;
22634;SDS011;11484;50.858;4.384;2022-10-17T05:23:43;8.43;;;4.82;;
22634;SDS011;11484;50.858;4.384;2022-10-17T05:26:09;6.53;;;4.97;;
22634;SDS011;11484;50.858;4.384;2022-10-17T05:28:36;7.20;;;5.13;;
22634;SDS011;11484;50.858;4.384;2022-10-17T05:31:02;9.55;;;5.20;;
22634;SDS011;11484;50.858;4.384;2022-10-17T05:33:29;6.20;;;5.00;;
22634;SDS011;11484;50.858;4.384;2022-10-17T05:35:55;7.03;;;4.82;;
22634;SDS011;11484;50.858;4.384;2022-10-17T05:38:20;9.50;;;5.53;;
22634;SDS011;11484;50.858;4.384;2022-10-17T05:40:46;11.32;;;5.07;;
22634;SDS011;11484;50.858;4.384;2022-10-17T05:43:11;7.00;;;5.22;;
22634;SDS011;11484;50.858;4.384;2022-10-17T05:45:38;6.90;;;4.68;;
22634;SDS011;11484;50.858;4.384;2022-10-17T05:48:04;9.10;;;5.13;;
22634;SDS011;11484;50.858;4.384;2022-10-17T05:50:30;7.72;;;4.50;;
22634;SDS011;11484;50.858;4.384;2022-10-17T05:52:56;7.82;;;5.07;;
22634;SDS011;11484;50.858;4.384;2022-10-17T05:55:22;8.13;;;4.80;;
22634;SDS011;11484;50.858;4.384;2022-10-17T05:57:48;7.90;;;4.55;;
22634;SDS011;11484;50.858;4.384;2022-10-17T06:00:14;8.88;;;4.40;;
22634;SDS011;11484;50.858;4.384;2022-10-17T06:02:40;7.35;;;5.03;;
22634;SDS011;11484;50.858;4.384;2022-10-17T06:05:07;11.32;;;5.20;;
22634;SDS011;11484;50.858;4.384;2022-10-17T06:07:34;6.28;;;4.47;;
22634;SDS011;11484;50.858;4.384;2022-10-17T06:10:00;9.80;;;4.63;;
22634;SDS011;11484;50.858;4.384;2022-10-17T06:12:25;8.32;;;4.55;;
22634;SDS011;11484;50.858;4.384;2022-10-17T06:14:51;5.45;;;4.47;;
22634;SDS011;11484;50.858;4.384;2022-10-17T06:17:20;9.25;;;4.70;;
22634;SDS011;11484;50.858;4.384;2022-10-17T06:19:45;6.85;;;4.18;;
22634;SDS011;11484;50.858;4.384;2022-10-17T06:22:11;7.55;;;4.45;;
22634;SDS011;11484;50.858;4.384;2022-10-17T06:24:37;8.13;;;5.38;;
22634;SDS011;11484;50.858;4.384;2022-10-17T06:27:03;11.70;;;5.20;;
22634;SDS011;11484;50.858;4.384;2022-10-17T06:29:29;6.97;;;4.60;;
22634;SDS011;11484;50.858;4.384;2022-10-17T06:31:55;8.50;;;4.88;;
22634;SDS011;11484;50.858;4.384;2022-10-17T06:34:21;10.25;;;4.40;;
22634;SDS011;11484;50.858;4.384;2022-10-17T06:36:47;8.48;;;4.63;;
22634;SDS011;11484;50.858;4.384;2022-10-17T06:39:12;8.60;;;5.40;;
22634;SDS011;11484;50.858;4.384;2022-10-17T06:41:38;6.45;;;4.38;;
22634;SDS011;11484;50.858;4.384;2022-10-17T06:44:05;9.43;;;4.50;;
22634;SDS011;11484;50.858;4.384;2022-10-17T06:46:35;7.70;;;4.28;;
22634;SDS011;11484;50.858;4.384;2022-10-17T06:49:02;9.13;;;5.15;;
22634;SDS011;11484;50.858;4.384;2022-10-17T06:51:29;7.38;;;5.15;;
22634;SDS011;11484;50.858;4.384;2022-10-17T06:53:56;9.52;;;4.10;;
22634;SDS011;11484;50.858;4.384;2022-10-17T06:56:22;8.55;;;4.50;;
22634;SDS011;11484;50.858;4.384;2022-10-17T06:58:49;6.93;;;4.65;;
22634;SDS011;11484;50.858;4.384;2022-10-17T07:01:15;7.50;;;4.15;;
22634;SDS011;11484;50.858;4.384;2022-10-17T07:03:41;17.60;;;9.20;;
22634;SDS011;11484;50.858;4.384;2022-10-17T07:06:10;9.60;;;6.72;;
22634;SDS011;11484;50.858;4.384;2022-10-17T07:08:36;6.32;;;4.68;;
22634;SDS011;11484;50.858;4.384;2022-10-17T07:11:13;6.13;;;4.45;;
22634;SDS011;11484;50.858;4.384;2022-10-17T07:13:40;12.25;;;4.55;;
22634;SDS011;11484;50.858;4.384;2022-10-17T07:16:07;9.07;;;4.28;;
22634;SDS011;11484;50.858;4.384;2022-10-17T07:18:33;8.95;;;5.43;;
22634;SDS011;11484;50.858;4.384;2022-10-17T07:20:59;11.50;;;4.60;;
22634;SDS011;11484;50.858;4.384;2022-10-17T07:23:25;9.43;;;4.32;;
22634;SDS011;11484;50.858;4.384;2022-10-17T07:25:51;9.50;;;4.63;;
22634;SDS011;11484;50.858;4.384;2022-10-17T07:28:17;8.13;;;4.57;;
22634;SDS011;11484;50.858;4.384;2022-10-17T07:30:43;10.10;;;4.93;;
22634;SDS011;11484;50.858;4.384;2022-10-17T07:33:09;8.10;;;4.50;;
22634;SDS011;11484;50.858;4.384;2022-10-17T07:35:36;10.68;;;4.90;;
22634;SDS011;11484;50.858;4.384;2022-10-17T07:38:05;7.43;;;4.73;;
22634;SDS011;11484;50.858;4.384;2022-10-17T07:40:30;8.35;;;5.22;;
22634;SDS011;11484;50.858;4.384;2022-10-17T07:42:56;8.90;;;5.50;;
22634;SDS011;11484;50.858;4.384;2022-10-17T07:45:22;9.07;;;5.20;;
22634;SDS011;11484;50.858;4.384;2022-10-17T07:47:48;8.65;;;5.07;;
22634;SDS011;11484;50.858;4.384;2022-10-17T07:50:14;8.60;;;4.90;;
22634;SDS011;11484;50.858;4.384;2022-10-17T07:52:55;12.10;;;7.10;;
22634;SDS011;11484;50.858;4.384;2022-10-17T07:55:22;7.10;;;5.00;;
22634;SDS011;11484;50.858;4.384;2022-10-17T07:57:47;7.10;;;5.15;;
22634;SDS011;11484;50.858;4.384;2022-10-17T08:00:13;7.47;;;5.55;;
22634;SDS011;11484;50.858;4.384;2022-10-17T08:02:39;6.13;;;5.18;;
22634;SDS011;11484;50.858;4.384;2022-10-17T08:05:06;14.30;;;6.00;;
22634;SDS011;11484;50.858;4.384;2022-10-17T08:07:32;8.52;;;5.97;;
22634;SDS011;11484;50.858;4.384;2022-10-17T08:09:58;7.47;;;5.28;;
22634;SDS011;11484;50.858;4.384;2022-10-17T08:12:25;10.25;;;7.72;;
22634;SDS011;11484;50.858;4.384;2022-10-17T08:14:55;7.40;;;5.70;;
22634;SDS011;11484;50.858;4.384;2022-10-17T08:17:21;7.63;;;4.88;;
22634;SDS011;11484;50.858;4.384;2022-10-17T08:19:47;9.60;;;5.95;;
22634;SDS011;11484;50.858;4.384;2022-10-17T08:22:13;11.52;;;5.88;;
22634;SDS011;11484;50.858;4.384;2022-10-17T08:24:39;14.05;;;6.57;;
22634;SDS011;11484;50.858;4.384;2022-10-17T08:27:06;8.95;;;7.15;;
22634;SDS011;11484;50.858;4.384;2022-10-17T08:29:36;12.77;;;6.78;;
22634;SDS011;11484;50.858;4.384;2022-10-17T08:32:12;9.35;;;6.57;;
22634;SDS011;11484;50.858;4.384;2022-10-17T08:34:39;12.45;;;7.10;;
22634;SDS011;11484;50.858;4.384;2022-10-17T08:37:05;8.80;;;6.60;;
22634;SDS011;11484;50.858;4.384;2022-10-17T08:39:31;9.55;;;6.18;;
22634;SDS011;11484;50.858;4.384;2022-10-17T08:47:12;12.70;;;6.70;;
22634;SDS011;11484;50.858;4.384;2022-10-17T08:49:48;8.50;;;6.70;;
22634;SDS011;11484;50.858;4.384;2022-10-17T08:52:34;9.50;;;7.05;;
22634;SDS011;11484;50.858;4.384;2022-10-17T08:55:17;13.55;;;7.03;;
22634;SDS011;11484;50.858;4.384;2022-10-17T08:57:51;16.58;;;8.20;;
22634;SDS011;11484;50.858;4.384;2022-10-17T09:00:17;13.35;;;6.85;;
22634;SDS011;11484;50.858;4.384;2022-10-17T09:16:35;8.88;;;6.07;;
22634;SDS011;11484;50.858;4.384;2022-10-17T09:22:36;12.07;;;6.53;;
22634;SDS011;11484;50.858;4.384;2022-10-17T09:25:16;10.73;;;5.80;;
22634;SDS011;11484;50.858;4.384;2022-10-17T09:27:45;12.07;;;7.50;;
22634;SDS011;11484;50.858;4.384;2022-10-17T09:33:16;9.05;;;5.93;;
22634;SDS011;11484;50.858;4.384;2022-10-17T09:35:43;9.00;;;6.45;;
22634;SDS011;11484;50.858;4.384;2022-10-17T09:38:16;8.70;;;6.70;;
22634;SDS011;11484;50.858;4.384;2022-10-17T09:40:45;11.15;;;6.68;;
22634;SDS011;11484;50.858;4.384;2022-10-17T09:43:20;12.40;;;7.78;;
22634;SDS011;11484;50.858;4.384;2022-10-17T09:46:35;10.57;;;7.38;;
22634;SDS011;11484;50.858;4.384;2022-10-17T09:48:55;17.73;;;6.90;;
22634;SDS011;11484;50.858;4.384;2022-10-17T09:51:29;11.70;;;6.72;;
22634;SDS011;11484;50.858;4.384;2022-10-17T09:54:01;22.40;;;20.05;;
22634;SDS011;11484;50.858;4.384;2022-10-17T09:56:29;33.00;;;30.38;;
22634;SDS011;11484;50.858;4.384;2022-10-17T09:58:56;22.05;;;19.58;;
22634;SDS011;11484;50.858;4.384;2022-10-17T10:01:23;16.08;;;14.48;;
22634;SDS011;11484;50.858;4.384;2022-10-17T10:04:08;11.63;;;10.43;;
22634;SDS011;11484;50.858;4.384;2022-10-17T10:06:38;10.70;;;7.60;;
22634;SDS011;11484;50.858;4.384;2022-10-17T10:09:06;17.40;;;7.28;;
22634;SDS011;11484;50.858;4.384;2022-10-17T10:11:48;7.97;;;6.65;;
22634;SDS011;11484;50.858;4.384;2022-10-17T10:14:31;11.77;;;6.80;;
22634;SDS011;11484;50.858;4.384;2022-10-17T10:16:59;9.60;;;6.93;;
22634;SDS011;11484;50.858;4.384;2022-10-17T10:19:33;11.85;;;7.05;;
22634;SDS011;11484;50.858;4.384;2022-10-17T10:22:05;12.48;;;7.03;;
22634;SDS011;11484;50.858;4.384;2022-10-17T10:24:40;10.13;;;6.32;;
22634;SDS011;11484;50.858;4.384;2022-10-17T10:27:09;12.50;;;6.65;;
22634;SDS011;11484;50.858;4.384;2022-10-17T10:29:39;15.18;;;6.78;;
22634;SDS011;11484;50.858;4.384;2022-10-17T10:32:08;7.07;;;6.03;;
22634;SDS011;11484;50.858;4.384;2022-10-17T10:34:42;7.38;;;5.85;;
22634;SDS011;11484;50.858;4.384;2022-10-17T10:37:20;8.65;;;5.97;;
22634;SDS011;11484;50.858;4.384;2022-10-17T10:42:51;18.30;;;10.82;;
22634;SDS011;11484;50.858;4.384;2022-10-17T10:45:39;21.35;;;12.50;;
22634;SDS011;11484;50.858;4.384;2022-10-17T10:50:49;14.15;;;6.35;;
22634;SDS011;11484;50.858;4.384;2022-10-17T10:56:32;10.13;;;6.43;;
22634;SDS011;11484;50.858;4.384;2022-10-17T10:59:03;9.13;;;6.00;;
22634;SDS011;11484;50.858;4.384;2022-10-17T11:01:51;12.68;;;6.97;;
22634;SDS011;11484;50.858;4.384;2022-10-17T11:04:46;13.80;;;7.38;;
22634;SDS011;11484;50.858;4.384;2022-10-17T11:07:25;12.23;;;6.13;;
22634;SDS011;11484;50.858;4.384;2022-10-17T11:13:33;11.23;;;6.38;;
22634;SDS011;11484;50.858;4.384;2022-10-17T11:15:54;10.45;;;7.57;;
22634;SDS011;11484;50.858;4.384;2022-10-17T11:18:44;11.48;;;6.50;;
22634;SDS011;11484;50.858;4.384;2022-10-17T11:21:15;10.35;;;6.97;;
22634;SDS011;11484;50.858;4.384;2022-10-17T11:23:52;13.38;;;7.18;;
22634;SDS011;11484;50.858;4.384;2022-10-17T11:26:26;10.70;;;6.88;;
22634;SDS011;11484;50.858;4.384;2022-10-17T11:28:54;14.63;;;6.80;;
22634;SDS011;11484;50.858;4.384;2022-10-17T11:31:26;9.38;;;5.95;;
22634;SDS011;11484;50.858;4.384;2022-10-17T11:34:14;9.20;;;6.47;;
22634;SDS011;11484;50.858;4.384;2022-10-17T11:36:46;11.13;;;6.57;;
22634;SDS011;11484;50.858;4.384;2022-10-17T11:39:19;8.60;;;6.57;;
22634;SDS011;11484;50.858;4.384;2022-10-17T11:47:00;11.52;;;7.60;;
22634;SDS011;11484;50.858;4.384;2022-10-17T11:49:51;10.80;;;7.65;;
22634;SDS011;11484;50.858;4.384;2022-10-17T11:52:28;17.45;;;7.80;;
22634;SDS011;11484;50.858;4.384;2022-10-17T11:55:10;10.85;;;7.57;;
22634;SDS011;11484;50.858;4.384;2022-10-17T11:58:00;10.45;;;6.90;;
22634;SDS011;11484;50.858;4.384;2022-10-17T12:00:53;12.95;;;6.93;;
22634;SDS011;11484;50.858;4.384;2022-10-17T12:11:55;12.35;;;7.05;;
22634;SDS011;11484;50.858;4.384;2022-10-17T12:16:59;16.73;;;7.60;;
22634;SDS011;11484;50.858;4.384;2022-10-17T12:19:27;10.48;;;7.10;;
22634;SDS011;11484;50.858;4.384;2022-10-17T12:24:52;13.30;;;6.97;;
22634;SDS011;11484;50.858;4.384;2022-10-17T12:27:28;9.73;;;6.72;;
22634;SDS011;11484;50.858;4.384;2022-10-17T12:30:17;16.70;;;7.97;;
22634;SDS011;11484;50.858;4.384;2022-10-17T12:32:52;10.25;;;7.22;;
22634;SDS011;11484;50.858;4.384;2022-10-17T12:35:23;11.68;;;6.80;;
22634;SDS011;11484;50.858;4.384;2022-10-17T12:45:56;12.10;;;8.15;;
22634;SDS011;11484;50.858;4.384;2022-10-17T12:51:08;13.95;;;8.80;;
22634;SDS011;11484;50.858;4.384;2022-10-17T12:56:38;14.02;;;9.02;;
22634;SDS011;11484;50.858;4.384;2022-10-17T12:59:27;15.55;;;8.43;;
22634;SDS011;11484;50.858;4.384;2022-10-17T13:01:56;19.58;;;11.38;;
22634;SDS011;11484;50.858;4.384;2022-10-17T13:04:25;12.63;;;8.10;;
22634;SDS011;11484;50.858;4.384;2022-10-17T13:06:53;10.68;;;7.57;;
22634;SDS011;11484;50.858;4.384;2022-10-17T13:11:51;9.27;;;8.20;;
22634;SDS011;11484;50.858;4.384;2022-10-17T13:14:20;10.73;;;8.10;;
22634;SDS011;11484;50.858;4.384;2022-10-17T13:16:57;11.52;;;6.80;;
22634;SDS011;11484;50.858;4.384;2022-10-17T13:19:42;12.85;;;7.88;;
22634;SDS011;11484;50.858;4.384;2022-10-17T13:22:22;14.15;;;6.93;;
22634;SDS011;11484;50.858;4.384;2022-10-17T13:24:52;12.60;;;9.73;;
22634;SDS011;11484;50.858;4.384;2022-10-17T13:27:33;14.48;;;11.10;;
22634;SDS011;11484;50.858;4.384;2022-10-17T13:30:01;11.85;;;6.97;;
22634;SDS011;11484;50.858;4.384;2022-10-17T13:32:45;11.40;;;6.50;;
22634;SDS011;11484;50.858;4.384;2022-10-17T13:35:13;12.27;;;6.75;;
22634;SDS011;11484;50.858;4.384;2022-10-17T13:37:42;10.80;;;6.85;;
22634;SDS011;11484;50.858;4.384;2022-10-17T13:40:17;10.63;;;7.43;;
22634;SDS011;11484;50.858;4.384;2022-10-17T13:42:46;14.02;;;6.03;;
22634;SDS011;11484;50.858;4.384;2022-10-17T13:45:17;10.88;;;7.55;;
22634;SDS011;11484;50.858;4.384;2022-10-17T13:47:57;8.45;;;5.63;;
22634;SDS011;11484;50.858;4.384;2022-10-17T13:50:30;9.90;;;5.77;;
22634;SDS011;11484;50.858;4.384;2022-10-17T13:55:59;9.90;;;6.47;;
22634;SDS011;11484;50.858;4.384;2022-10-17T13:58:29;11.90;;;6.35;;
22634;SDS011;11484;50.858;4.384;2022-10-17T14:01:29;8.82;;;5.13;;
22634;SDS011;11484;50.858;4.384;2022-10-17T14:03:55;9.88;;;4.90;;
22634;SDS011;11484;50.858;4.384;2022-10-17T14:06:23;12.68;;;5.80;;
22634;SDS011;11484;50.858;4.384;2022-10-17T14:14:03;6.50;;;4.32;;
22634;SDS011;11484;50.858;4.384;2022-10-17T14:16:38;7.50;;;5.22;;
22634;SDS011;11484;50.858;4.384;2022-10-17T14:19:15;8.82;;;4.88;;
22634;SDS011;11484;50.858;4.384;2022-10-17T14:22:14;6.03;;;3.92;;
22634;SDS011;11484;50.858;4.384;2022-10-17T14:24:45;5.55;;;3.78;;
22634;SDS011;11484;50.858;4.384;2022-10-17T14:29:56;6.57;;;3.65;;
22634;SDS011;11484;50.858;4.384;2022-10-17T14:32:25;7.00;;;3.40;;
22634;SDS011;11484;50.858;4.384;2022-10-17T14:34:56;5.28;;;3.45;;
22634;SDS011;11484;50.858;4.384;2022-10-17T14:40:17;6.57;;;3.50;;
22634;SDS011;11484;50.858;4.384;2022-10-17T14:42:47;6.13;;;3.95;;
22634;SDS011;11484;50.858;4.384;2022-10-17T14:45:20;9.75;;;4.18;;
22634;SDS011;11484;50.858;4.384;2022-10-17T14:47:52;6.93;;;3.40;;
22634;SDS011;11484;50.858;4.384;2022-10-17T14:50:25;6.70;;;3.53;;
22634;SDS011;11484;50.858;4.384;2022-10-17T14:55:56;7.55;;;3.83;;
22634;SDS011;11484;50.858;4.384;2022-10-17T14:58:25;19.85;;;14.73;;
22634;SDS011;11484;50.858;4.384;2022-10-17T15:00:53;8.75;;;5.13;;
22634;SDS011;11484;50.858;4.384;2022-10-17T15:03:20;9.05;;;4.13;;
22634;SDS011;11484;50.858;4.384;2022-10-17T15:05:46;7.32;;;3.97;;
22634;SDS011;11484;50.858;4.384;2022-10-17T15:08:13;4.93;;;3.42;;
22634;SDS011;11484;50.858;4.384;2022-10-17T15:10:43;5.07;;;3.38;;
22634;SDS011;11484;50.858;4.384;2022-10-17T15:13:10;7.40;;;3.42;;
22634;SDS011;11484;50.858;4.384;2022-10-17T15:15:38;6.15;;;3.20;;
22634;SDS011;11484;50.858;4.384;2022-10-17T15:18:05;5.97;;;3.33;;
22634;SDS011;11484;50.858;4.384;2022-10-17T15:20:31;6.20;;;3.80;;
22634;SDS011;11484;50.858;4.384;2022-10-17T15:22:59;6.80;;;2.83;;
22634;SDS011;11484;50.858;4.384;2022-10-17T15:25:26;5.55;;;3.67;;
22634;SDS011;11484;50.858;4.384;2022-10-17T15:27:53;7.28;;;4.03;;
22634;SDS011;11484;50.858;4.384;2022-10-17T15:32:58;7.23;;;3.80;;
22634;SDS011;11484;50.858;4.384;2022-10-17T15:35:24;8.57;;;4.38;;
22634;SDS011;11484;50.858;4.384;2022-10-17T15:37:51;6.32;;;3.83;;
22634;SDS011;11484;50.858;4.384;2022-10-17T15:40:36;9.07;;;4.15;;
22634;SDS011;11484;50.858;4.384;2022-10-17T15:43:40;7.10;;;3.30;;
22634;SDS011;11484;50.858;4.384;2022-10-17T15:46:19;7.00;;;4.10;;
22634;SDS011;11484;50.858;4.384;2022-10-17T15:48:48;7.85;;;4.72;;
22634;SDS011;11484;50.858;4.384;2022-10-17T15:51:14;6.82;;;4.03;;
22634;SDS011;11484;50.858;4.384;2022-10-17T15:53:40;6.85;;;3.25;;
22634;SDS011;11484;50.858;4.384;2022-10-17T15:56:06;6.95;;;4.07;;
22634;SDS011;11484;50.858;4.384;2022-10-17T15:58:35;7.97;;;4.28;;
22634;SDS011;11484;50.858;4.384;2022-10-17T16:01:03;6.53;;;3.80;;
22634;SDS011;11484;50.858;4.384;2022-10-17T16:03:30;8.55;;;3.80;;
22634;SDS011;11484;50.858;4.384;2022-10-17T16:05:56;6.45;;;3.92;;
22634;SDS011;11484;50.858;4.384;2022-10-17T16:08:21;9.40;;;3.88;;
22634;SDS011;11484;50.858;4.384;2022-10-17T16:10:47;12.60;;;4.32;;
22634;SDS011;11484;50.858;4.384;2022-10-17T16:13:17;8.85;;;4.85;;
22634;SDS011;11484;50.858;4.384;2022-10-17T16:15:45;7.70;;;4.68;;
22634;SDS011;11484;50.858;4.384;2022-10-17T16:18:11;6.53;;;3.60;;
22634;SDS011;11484;50.858;4.384;2022-10-17T16:20:37;7.10;;;4.30;;
22634;SDS011;11484;50.858;4.384;2022-10-17T16:23:03;8.93;;;4.05;;
22634;SDS011;11484;50.858;4.384;2022-10-17T16:25:30;7.55;;;4.30;;
22634;SDS011;11484;50.858;4.384;2022-10-17T16:27:58;9.27;;;3.80;;
22634;SDS011;11484;50.858;4.384;2022-10-17T16:30:25;6.57;;;3.97;;
22634;SDS011;11484;50.858;4.384;2022-10-17T16:32:53;4.65;;;3.53;;
22634;SDS011;11484;50.858;4.384;2022-10-17T16:35:20;6.30;;;3.50;;
22634;SDS011;11484;50.858;4.384;2022-10-17T16:37:48;6.15;;;4.00;;
22634;SDS011;11484;50.858;4.384;2022-10-17T16:40:14;12.10;;;5.50;;
22634;SDS011;11484;50.858;4.384;2022-10-17T16:42:40;9.00;;;4.68;;
22634;SDS011;11484;50.858;4.384;2022-10-17T16:45:06;6.30;;;3.42;;
22634;SDS011;11484;50.858;4.384;2022-10-17T16:47:32;4.10;;;2.90;;
22634;SDS011;11484;50.858;4.384;2022-10-17T16:49:58;6.18;;;3.58;;
22634;SDS011;11484;50.858;4.384;2022-10-17T16:52:23;7.00;;;3.90;;
22634;SDS011;11484;50.858;4.384;2022-10-17T16:54:49;6.32;;;3.53;;
22634;SDS011;11484;50.858;4.384;2022-10-17T16:57:15;6.80;;;4.10;;
22634;SDS011;11484;50.858;4.384;2022-10-17T16:59:41;8.02;;;3.65;;
22634;SDS011;11484;50.858;4.384;2022-10-17T17:02:07;6.70;;;4.07;;
22634;SDS011;11484;50.858;4.384;2022-10-17T17:04:35;7.40;;;4.20;;